sensor_id;sensor_type;location;lat;lon;timestamp;P1;durP1;ratioP1;P2;durP2;ratioP2
60038;SDS011;45916;52.734;6.544;2024-01-30T00:01:48;31.55;;;27.08;;
60038;SDS011;45916;52.734;6.544;2024-01-30T00:04:14;30.13;;;27.02;;
60038;SDS011;45916;52.734;6.544;2024-01-30T00:06:41;31.48;;;28.02;;
60038;SDS011;45916;52.734;6.544;2024-01-30T00:09:07;32.20;;;28.80;;
60038;SDS011;45916;52.734;6.544;2024-01-30T00:11:34;31.90;;;28.52;;
60038;SDS011;45916;52.734;6.544;2024-01-30T00:13:59;31.27;;;27.88;;
60038;SDS011;45916;52.734;6.544;2024-01-30T00:16:25;30.95;;;27.85;;
60038;SDS011;45916;52.734;6.544;2024-01-30T00:18:52;33.65;;;28.65;;
60038;SDS011;45916;52.734;6.544;2024-01-30T00:21:18;32.85;;;27.83;;
60038;SDS011;45916;52.734;6.544;2024-01-30T00:23:44;31.20;;;27.80;;
60038;SDS011;45916;52.734;6.544;2024-01-30T00:26:10;30.17;;;26.67;;
60038;SDS011;45916;52.734;6.544;2024-01-30T00:28:36;32.85;;;27.98;;
60038;SDS011;45916;52.734;6.544;2024-01-30T00:31:05;31.77;;;26.83;;
60038;SDS011;45916;52.734;6.544;2024-01-30T00:33:31;36.63;;;28.08;;
60038;SDS011;45916;52.734;6.544;2024-01-30T00:35:56;31.38;;;27.10;;
60038;SDS011;45916;52.734;6.544;2024-01-30T00:38:22;32.50;;;27.20;;
60038;SDS011;45916;52.734;6.544;2024-01-30T00:40:48;30.90;;;27.25;;
60038;SDS011;45916;52.734;6.544;2024-01-30T00:43:14;31.52;;;27.42;;
60038;SDS011;45916;52.734;6.544;2024-01-30T00:45:41;30.40;;;26.95;;
60038;SDS011;45916;52.734;6.544;2024-01-30T00:48:06;30.42;;;26.42;;
60038;SDS011;45916;52.734;6.544;2024-01-30T00:50:32;30.35;;;26.80;;
60038;SDS011;45916;52.734;6.544;2024-01-30T00:52:58;29.63;;;26.42;;
60038;SDS011;45916;52.734;6.544;2024-01-30T00:55:23;30.08;;;26.85;;
60038;SDS011;45916;52.734;6.544;2024-01-30T00:57:49;31.10;;;27.80;;
60038;SDS011;45916;52.734;6.544;2024-01-30T01:00:15;29.83;;;26.73;;
60038;SDS011;45916;52.734;6.544;2024-01-30T01:02:43;29.10;;;26.05;;
60038;SDS011;45916;52.734;6.544;2024-01-30T01:05:09;28.98;;;25.90;;
60038;SDS011;45916;52.734;6.544;2024-01-30T01:07:35;30.92;;;27.73;;
60038;SDS011;45916;52.734;6.544;2024-01-30T01:10:01;30.77;;;26.20;;
60038;SDS011;45916;52.734;6.544;2024-01-30T01:12:27;32.15;;;28.42;;
60038;SDS011;45916;52.734;6.544;2024-01-30T01:14:53;30.98;;;25.35;;
60038;SDS011;45916;52.734;6.544;2024-01-30T01:17:19;31.10;;;26.55;;
60038;SDS011;45916;52.734;6.544;2024-01-30T01:19:44;30.20;;;27.05;;
60038;SDS011;45916;52.734;6.544;2024-01-30T01:22:10;33.20;;;27.58;;
60038;SDS011;45916;52.734;6.544;2024-01-30T01:24:36;31.77;;;26.80;;
60038;SDS011;45916;52.734;6.544;2024-01-30T01:27:02;32.45;;;27.13;;
60038;SDS011;45916;52.734;6.544;2024-01-30T01:29:28;31.38;;;26.38;;
60038;SDS011;45916;52.734;6.544;2024-01-30T01:31:57;29.92;;;26.40;;
60038;SDS011;45916;52.734;6.544;2024-01-30T01:34:23;32.85;;;27.27;;
60038;SDS011;45916;52.734;6.544;2024-01-30T01:36:50;31.42;;;26.75;;
60038;SDS011;45916;52.734;6.544;2024-01-30T01:39:16;33.13;;;27.48;;
60038;SDS011;45916;52.734;6.544;2024-01-30T01:41:42;33.67;;;27.08;;
60038;SDS011;45916;52.734;6.544;2024-01-30T01:44:08;29.50;;;26.35;;
60038;SDS011;45916;52.734;6.544;2024-01-30T01:46:34;29.23;;;26.15;;
60038;SDS011;45916;52.734;6.544;2024-01-30T01:49:02;29.17;;;25.52;;
60038;SDS011;45916;52.734;6.544;2024-01-30T01:51:29;29.02;;;25.95;;
60038;SDS011;45916;52.734;6.544;2024-01-30T01:53:56;28.88;;;25.88;;
60038;SDS011;45916;52.734;6.544;2024-01-30T01:56:23;31.10;;;27.65;;
60038;SDS011;45916;52.734;6.544;2024-01-30T01:58:49;31.38;;;25.80;;
60038;SDS011;45916;52.734;6.544;2024-01-30T02:01:19;33.08;;;26.00;;
60038;SDS011;45916;52.734;6.544;2024-01-30T02:03:46;29.07;;;25.53;;
60038;SDS011;45916;52.734;6.544;2024-01-30T02:06:15;31.27;;;26.60;;
60038;SDS011;45916;52.734;6.544;2024-01-30T02:08:41;31.80;;;26.55;;
60038;SDS011;45916;52.734;6.544;2024-01-30T02:11:07;28.30;;;25.23;;
60038;SDS011;45916;52.734;6.544;2024-01-30T02:13:35;28.90;;;25.85;;
60038;SDS011;45916;52.734;6.544;2024-01-30T02:16:01;28.52;;;25.45;;
60038;SDS011;45916;52.734;6.544;2024-01-30T02:18:26;29.25;;;26.15;;
60038;SDS011;45916;52.734;6.544;2024-01-30T02:20:54;30.33;;;25.08;;
60038;SDS011;45916;52.734;6.544;2024-01-30T02:23:23;30.05;;;26.90;;
60038;SDS011;45916;52.734;6.544;2024-01-30T02:25:50;30.42;;;26.80;;
60038;SDS011;45916;52.734;6.544;2024-01-30T02:28:18;31.33;;;26.48;;
60038;SDS011;45916;52.734;6.544;2024-01-30T02:30:44;32.13;;;25.98;;
60038;SDS011;45916;52.734;6.544;2024-01-30T02:33:11;30.20;;;26.05;;
60038;SDS011;45916;52.734;6.544;2024-01-30T02:35:36;28.52;;;25.45;;
60038;SDS011;45916;52.734;6.544;2024-01-30T02:38:02;27.92;;;25.02;;
60038;SDS011;45916;52.734;6.544;2024-01-30T02:40:28;31.10;;;25.55;;
60038;SDS011;45916;52.734;6.544;2024-01-30T02:42:54;28.73;;;25.10;;
60038;SDS011;45916;52.734;6.544;2024-01-30T02:45:19;28.08;;;24.20;;
60038;SDS011;45916;52.734;6.544;2024-01-30T02:47:45;30.10;;;25.60;;
60038;SDS011;45916;52.734;6.544;2024-01-30T02:50:11;32.08;;;25.92;;
60038;SDS011;45916;52.734;6.544;2024-01-30T02:52:37;28.23;;;24.67;;
60038;SDS011;45916;52.734;6.544;2024-01-30T02:55:03;29.25;;;26.13;;
60038;SDS011;45916;52.734;6.544;2024-01-30T02:57:29;29.23;;;25.27;;
60038;SDS011;45916;52.734;6.544;2024-01-30T02:59:55;30.85;;;26.08;;
60038;SDS011;45916;52.734;6.544;2024-01-30T03:02:20;28.08;;;25.05;;
60038;SDS011;45916;52.734;6.544;2024-01-30T03:04:46;29.85;;;24.80;;
60038;SDS011;45916;52.734;6.544;2024-01-30T03:07:12;27.35;;;24.33;;
60038;SDS011;45916;52.734;6.544;2024-01-30T03:09:38;28.23;;;24.73;;
60038;SDS011;45916;52.734;6.544;2024-01-30T03:12:04;27.52;;;24.38;;
60038;SDS011;45916;52.734;6.544;2024-01-30T03:14:30;27.35;;;24.27;;
60038;SDS011;45916;52.734;6.544;2024-01-30T03:16:57;28.00;;;23.52;;
60038;SDS011;45916;52.734;6.544;2024-01-30T03:19:23;27.98;;;25.02;;
60038;SDS011;45916;52.734;6.544;2024-01-30T03:21:48;27.58;;;24.45;;
60038;SDS011;45916;52.734;6.544;2024-01-30T03:24:14;28.80;;;25.15;;
60038;SDS011;45916;52.734;6.544;2024-01-30T03:26:40;28.27;;;24.30;;
60038;SDS011;45916;52.734;6.544;2024-01-30T03:29:06;29.23;;;25.25;;
60038;SDS011;45916;52.734;6.544;2024-01-30T03:31:32;30.73;;;25.95;;
60038;SDS011;45916;52.734;6.544;2024-01-30T03:33:58;27.65;;;24.70;;
60038;SDS011;45916;52.734;6.544;2024-01-30T03:36:24;25.98;;;22.70;;
60038;SDS011;45916;52.734;6.544;2024-01-30T03:38:49;25.92;;;23.23;;
60038;SDS011;45916;52.734;6.544;2024-01-30T03:41:15;27.27;;;24.38;;
60038;SDS011;45916;52.734;6.544;2024-01-30T03:43:41;27.92;;;24.38;;
60038;SDS011;45916;52.734;6.544;2024-01-30T03:46:06;28.77;;;23.75;;
60038;SDS011;45916;52.734;6.544;2024-01-30T03:48:32;27.95;;;24.30;;
60038;SDS011;45916;52.734;6.544;2024-01-30T03:50:58;28.00;;;23.10;;
60038;SDS011;45916;52.734;6.544;2024-01-30T03:53:23;28.90;;;22.58;;
60038;SDS011;45916;52.734;6.544;2024-01-30T03:55:49;29.60;;;24.35;;
60038;SDS011;45916;52.734;6.544;2024-01-30T03:58:15;26.15;;;22.73;;
60038;SDS011;45916;52.734;6.544;2024-01-30T04:00:40;25.65;;;22.92;;
60038;SDS011;45916;52.734;6.544;2024-01-30T04:03:06;28.15;;;23.23;;
60038;SDS011;45916;52.734;6.544;2024-01-30T04:05:32;27.38;;;23.80;;
60038;SDS011;45916;52.734;6.544;2024-01-30T04:07:58;27.23;;;22.65;;
60038;SDS011;45916;52.734;6.544;2024-01-30T04:10:24;27.70;;;24.20;;
60038;SDS011;45916;52.734;6.544;2024-01-30T04:12:50;26.02;;;22.40;;
60038;SDS011;45916;52.734;6.544;2024-01-30T04:15:17;25.45;;;22.75;;
60038;SDS011;45916;52.734;6.544;2024-01-30T04:17:43;26.08;;;23.35;;
60038;SDS011;45916;52.734;6.544;2024-01-30T04:20:13;25.25;;;21.75;;
60038;SDS011;45916;52.734;6.544;2024-01-30T04:22:44;24.77;;;21.40;;
60038;SDS011;45916;52.734;6.544;2024-01-30T04:25:11;25.45;;;21.67;;
60038;SDS011;45916;52.734;6.544;2024-01-30T04:27:37;25.33;;;22.20;;
60038;SDS011;45916;52.734;6.544;2024-01-30T04:30:03;24.35;;;21.48;;
60038;SDS011;45916;52.734;6.544;2024-01-30T04:32:29;26.25;;;21.25;;
60038;SDS011;45916;52.734;6.544;2024-01-30T04:34:54;25.42;;;22.42;;
60038;SDS011;45916;52.734;6.544;2024-01-30T04:37:20;24.02;;;21.35;;
60038;SDS011;45916;52.734;6.544;2024-01-30T04:39:46;25.08;;;21.65;;
60038;SDS011;45916;52.734;6.544;2024-01-30T04:42:11;25.55;;;21.33;;
60038;SDS011;45916;52.734;6.544;2024-01-30T04:44:37;23.45;;;21.00;;
60038;SDS011;45916;52.734;6.544;2024-01-30T04:47:03;25.85;;;22.23;;
60038;SDS011;45916;52.734;6.544;2024-01-30T04:49:31;27.38;;;21.77;;
60038;SDS011;45916;52.734;6.544;2024-01-30T04:51:57;23.80;;;21.20;;
60038;SDS011;45916;52.734;6.544;2024-01-30T04:54:23;26.35;;;21.30;;
60038;SDS011;45916;52.734;6.544;2024-01-30T04:56:49;25.20;;;21.00;;
60038;SDS011;45916;52.734;6.544;2024-01-30T04:59:15;24.02;;;21.05;;
60038;SDS011;45916;52.734;6.544;2024-01-30T05:01:40;24.08;;;21.17;;
60038;SDS011;45916;52.734;6.544;2024-01-30T05:04:09;25.02;;;20.90;;
60038;SDS011;45916;52.734;6.544;2024-01-30T05:06:36;23.25;;;20.63;;
60038;SDS011;45916;52.734;6.544;2024-01-30T05:09:01;26.70;;;21.95;;
60038;SDS011;45916;52.734;6.544;2024-01-30T05:11:29;26.40;;;21.33;;
60038;SDS011;45916;52.734;6.544;2024-01-30T05:13:55;24.30;;;21.35;;
60038;SDS011;45916;52.734;6.544;2024-01-30T05:16:21;25.27;;;22.00;;
60038;SDS011;45916;52.734;6.544;2024-01-30T05:18:47;26.73;;;22.98;;
60038;SDS011;45916;52.734;6.544;2024-01-30T05:21:12;23.85;;;21.35;;
60038;SDS011;45916;52.734;6.544;2024-01-30T05:23:38;28.60;;;21.95;;
60038;SDS011;45916;52.734;6.544;2024-01-30T05:26:05;25.88;;;22.95;;
60038;SDS011;45916;52.734;6.544;2024-01-30T05:28:31;25.52;;;21.60;;
60038;SDS011;45916;52.734;6.544;2024-01-30T05:30:57;25.48;;;22.65;;
60038;SDS011;45916;52.734;6.544;2024-01-30T05:33:23;26.08;;;21.25;;
60038;SDS011;45916;52.734;6.544;2024-01-30T05:35:49;24.83;;;20.83;;
60038;SDS011;45916;52.734;6.544;2024-01-30T05:38:17;25.17;;;21.63;;
60038;SDS011;45916;52.734;6.544;2024-01-30T05:40:43;28.13;;;21.58;;
60038;SDS011;45916;52.734;6.544;2024-01-30T05:43:09;25.02;;;21.13;;
60038;SDS011;45916;52.734;6.544;2024-01-30T05:45:34;26.30;;;21.38;;
60038;SDS011;45916;52.734;6.544;2024-01-30T05:48:01;26.45;;;21.25;;
60038;SDS011;45916;52.734;6.544;2024-01-30T05:50:26;26.02;;;22.45;;
60038;SDS011;45916;52.734;6.544;2024-01-30T05:52:52;25.42;;;21.73;;
60038;SDS011;45916;52.734;6.544;2024-01-30T05:55:18;24.13;;;20.83;;
60038;SDS011;45916;52.734;6.544;2024-01-30T05:57:43;24.58;;;21.25;;
60038;SDS011;45916;52.734;6.544;2024-01-30T06:00:09;24.33;;;19.95;;
60038;SDS011;45916;52.734;6.544;2024-01-30T06:02:35;23.20;;;20.55;;
60038;SDS011;45916;52.734;6.544;2024-01-30T06:05:01;24.02;;;21.40;;
60038;SDS011;45916;52.734;6.544;2024-01-30T06:07:27;26.40;;;21.55;;
60038;SDS011;45916;52.734;6.544;2024-01-30T06:09:53;25.20;;;21.17;;
60038;SDS011;45916;52.734;6.544;2024-01-30T06:12:18;23.52;;;21.02;;
60038;SDS011;45916;52.734;6.544;2024-01-30T06:14:44;26.60;;;21.45;;
60038;SDS011;45916;52.734;6.544;2024-01-30T06:17:10;27.20;;;21.35;;
60038;SDS011;45916;52.734;6.544;2024-01-30T06:19:37;23.77;;;20.90;;
60038;SDS011;45916;52.734;6.544;2024-01-30T06:22:06;23.60;;;20.60;;
60038;SDS011;45916;52.734;6.544;2024-01-30T06:24:31;21.92;;;19.58;;
60038;SDS011;45916;52.734;6.544;2024-01-30T06:26:58;22.63;;;19.75;;
60038;SDS011;45916;52.734;6.544;2024-01-30T06:29:24;26.40;;;21.98;;
60038;SDS011;45916;52.734;6.544;2024-01-30T06:31:51;24.40;;;20.30;;
60038;SDS011;45916;52.734;6.544;2024-01-30T06:34:17;26.77;;;22.58;;
60038;SDS011;45916;52.734;6.544;2024-01-30T06:36:43;27.88;;;20.15;;
60038;SDS011;45916;52.734;6.544;2024-01-30T06:39:08;26.35;;;21.02;;
60038;SDS011;45916;52.734;6.544;2024-01-30T06:41:34;24.58;;;21.20;;
60038;SDS011;45916;52.734;6.544;2024-01-30T06:44:01;22.42;;;19.95;;
60038;SDS011;45916;52.734;6.544;2024-01-30T06:46:28;24.08;;;20.55;;
60038;SDS011;45916;52.734;6.544;2024-01-30T06:48:54;23.83;;;19.98;;
60038;SDS011;45916;52.734;6.544;2024-01-30T06:51:19;24.52;;;19.92;;
60038;SDS011;45916;52.734;6.544;2024-01-30T06:53:45;22.98;;;18.67;;
60038;SDS011;45916;52.734;6.544;2024-01-30T06:56:11;22.25;;;19.77;;
60038;SDS011;45916;52.734;6.544;2024-01-30T06:58:36;24.52;;;19.83;;
60038;SDS011;45916;52.734;6.544;2024-01-30T07:01:02;23.63;;;20.02;;
60038;SDS011;45916;52.734;6.544;2024-01-30T07:03:28;22.60;;;20.05;;
60038;SDS011;45916;52.734;6.544;2024-01-30T07:05:53;22.23;;;19.80;;
60038;SDS011;45916;52.734;6.544;2024-01-30T07:08:19;22.33;;;19.63;;
60038;SDS011;45916;52.734;6.544;2024-01-30T07:10:45;23.67;;;19.45;;
60038;SDS011;45916;52.734;6.544;2024-01-30T07:13:11;23.33;;;20.48;;
60038;SDS011;45916;52.734;6.544;2024-01-30T07:15:37;24.30;;;20.35;;
60038;SDS011;45916;52.734;6.544;2024-01-30T07:18:03;20.75;;;18.42;;
60038;SDS011;45916;52.734;6.544;2024-01-30T07:20:30;23.38;;;18.92;;
60038;SDS011;45916;52.734;6.544;2024-01-30T07:22:59;23.83;;;19.85;;
60038;SDS011;45916;52.734;6.544;2024-01-30T07:25:25;24.05;;;19.80;;
60038;SDS011;45916;52.734;6.544;2024-01-30T07:27:55;22.83;;;18.98;;
60038;SDS011;45916;52.734;6.544;2024-01-30T07:30:21;22.02;;;17.08;;
60038;SDS011;45916;52.734;6.544;2024-01-30T07:32:47;23.25;;;20.25;;
60038;SDS011;45916;52.734;6.544;2024-01-30T07:35:16;20.70;;;18.45;;
60038;SDS011;45916;52.734;6.544;2024-01-30T07:37:42;20.63;;;17.90;;
60038;SDS011;45916;52.734;6.544;2024-01-30T07:40:07;24.08;;;18.40;;
60038;SDS011;45916;52.734;6.544;2024-01-30T07:42:33;22.70;;;19.02;;
60038;SDS011;45916;52.734;6.544;2024-01-30T07:45:00;22.60;;;18.63;;
60038;SDS011;45916;52.734;6.544;2024-01-30T07:47:26;22.00;;;17.98;;
60038;SDS011;45916;52.734;6.544;2024-01-30T07:49:52;23.95;;;17.90;;
60038;SDS011;45916;52.734;6.544;2024-01-30T07:52:19;21.85;;;17.63;;
60038;SDS011;45916;52.734;6.544;2024-01-30T07:54:48;22.17;;;18.42;;
60038;SDS011;45916;52.734;6.544;2024-01-30T07:57:14;25.55;;;20.15;;
60038;SDS011;45916;52.734;6.544;2024-01-30T07:59:41;24.02;;;18.38;;
60038;SDS011;45916;52.734;6.544;2024-01-30T08:02:09;20.95;;;17.48;;
60038;SDS011;45916;52.734;6.544;2024-01-30T08:04:34;22.17;;;18.10;;
60038;SDS011;45916;52.734;6.544;2024-01-30T08:07:00;23.98;;;18.80;;
60038;SDS011;45916;52.734;6.544;2024-01-30T08:09:26;21.35;;;16.98;;
60038;SDS011;45916;52.734;6.544;2024-01-30T08:11:51;20.83;;;18.02;;
60038;SDS011;45916;52.734;6.544;2024-01-30T08:14:17;21.08;;;17.20;;
60038;SDS011;45916;52.734;6.544;2024-01-30T08:16:43;22.20;;;16.90;;
60038;SDS011;45916;52.734;6.544;2024-01-30T08:19:09;21.30;;;16.23;;
60038;SDS011;45916;52.734;6.544;2024-01-30T08:21:34;25.55;;;18.10;;
60038;SDS011;45916;52.734;6.544;2024-01-30T08:24:04;21.23;;;17.20;;
60038;SDS011;45916;52.734;6.544;2024-01-30T08:26:30;23.08;;;18.13;;
60038;SDS011;45916;52.734;6.544;2024-01-30T08:28:57;18.65;;;16.60;;
60038;SDS011;45916;52.734;6.544;2024-01-30T08:31:22;18.95;;;15.43;;
60038;SDS011;45916;52.734;6.544;2024-01-30T08:33:48;20.98;;;16.80;;
60038;SDS011;45916;52.734;6.544;2024-01-30T08:36:15;21.02;;;15.95;;
60038;SDS011;45916;52.734;6.544;2024-01-30T08:38:41;20.27;;;15.70;;
60038;SDS011;45916;52.734;6.544;2024-01-30T08:41:07;19.58;;;15.77;;
60038;SDS011;45916;52.734;6.544;2024-01-30T08:43:33;20.10;;;16.40;;
60038;SDS011;45916;52.734;6.544;2024-01-30T08:45:59;22.45;;;15.23;;
60038;SDS011;45916;52.734;6.544;2024-01-30T08:48:25;20.42;;;14.82;;
60038;SDS011;45916;52.734;6.544;2024-01-30T08:50:51;19.33;;;14.05;;
60038;SDS011;45916;52.734;6.544;2024-01-30T08:53:17;19.73;;;15.90;;
60038;SDS011;45916;52.734;6.544;2024-01-30T08:55:43;20.80;;;15.80;;
60038;SDS011;45916;52.734;6.544;2024-01-30T08:58:09;20.90;;;16.67;;
60038;SDS011;45916;52.734;6.544;2024-01-30T09:00:35;23.08;;;17.83;;
60038;SDS011;45916;52.734;6.544;2024-01-30T09:03:01;20.52;;;16.13;;
60038;SDS011;45916;52.734;6.544;2024-01-30T09:05:26;21.05;;;16.05;;
60038;SDS011;45916;52.734;6.544;2024-01-30T09:07:52;21.00;;;16.55;;
60038;SDS011;45916;52.734;6.544;2024-01-30T09:10:18;18.90;;;15.63;;
60038;SDS011;45916;52.734;6.544;2024-01-30T09:12:44;18.00;;;15.63;;
60038;SDS011;45916;52.734;6.544;2024-01-30T09:15:10;19.13;;;15.82;;
60038;SDS011;45916;52.734;6.544;2024-01-30T09:17:36;19.35;;;15.25;;
60038;SDS011;45916;52.734;6.544;2024-01-30T09:20:01;19.15;;;15.32;;
60038;SDS011;45916;52.734;6.544;2024-01-30T09:22:27;16.85;;;15.05;;
60038;SDS011;45916;52.734;6.544;2024-01-30T09:24:53;17.35;;;14.77;;
60038;SDS011;45916;52.734;6.544;2024-01-30T09:27:18;20.23;;;15.82;;
60038;SDS011;45916;52.734;6.544;2024-01-30T09:29:45;17.67;;;14.52;;
60038;SDS011;45916;52.734;6.544;2024-01-30T09:32:10;18.00;;;14.70;;
60038;SDS011;45916;52.734;6.544;2024-01-30T09:34:36;16.85;;;15.05;;
60038;SDS011;45916;52.734;6.544;2024-01-30T09:37:02;17.23;;;15.13;;
60038;SDS011;45916;52.734;6.544;2024-01-30T09:39:28;17.00;;;13.77;;
60038;SDS011;45916;52.734;6.544;2024-01-30T09:42:11;18.80;;;14.70;;
60038;SDS011;45916;52.734;6.544;2024-01-30T09:44:45;20.10;;;15.95;;
60038;SDS011;45916;52.734;6.544;2024-01-30T09:47:15;17.10;;;14.65;;
60038;SDS011;45916;52.734;6.544;2024-01-30T09:49:42;20.30;;;15.90;;
60038;SDS011;45916;52.734;6.544;2024-01-30T09:52:09;17.52;;;15.27;;
60038;SDS011;45916;52.734;6.544;2024-01-30T09:54:35;18.23;;;14.90;;
60038;SDS011;45916;52.734;6.544;2024-01-30T09:57:03;19.13;;;14.73;;
60038;SDS011;45916;52.734;6.544;2024-01-30T09:59:29;16.70;;;13.75;;
60038;SDS011;45916;52.734;6.544;2024-01-30T10:01:55;20.13;;;16.77;;
60038;SDS011;45916;52.734;6.544;2024-01-30T10:04:22;17.75;;;14.82;;
60038;SDS011;45916;52.734;6.544;2024-01-30T10:06:48;18.30;;;15.48;;
60038;SDS011;45916;52.734;6.544;2024-01-30T10:09:14;17.38;;;15.02;;
60038;SDS011;45916;52.734;6.544;2024-01-30T10:11:40;17.10;;;15.10;;
60038;SDS011;45916;52.734;6.544;2024-01-30T10:14:05;20.05;;;14.93;;
60038;SDS011;45916;52.734;6.544;2024-01-30T10:16:31;18.55;;;15.13;;
60038;SDS011;45916;52.734;6.544;2024-01-30T10:18:57;17.45;;;15.02;;
60038;SDS011;45916;52.734;6.544;2024-01-30T10:21:23;18.50;;;14.52;;
60038;SDS011;45916;52.734;6.544;2024-01-30T10:23:49;19.27;;;14.88;;
60038;SDS011;45916;52.734;6.544;2024-01-30T10:26:18;19.67;;;14.70;;
60038;SDS011;45916;52.734;6.544;2024-01-30T10:28:44;18.67;;;15.65;;
60038;SDS011;45916;52.734;6.544;2024-01-30T10:31:10;17.70;;;14.88;;
60038;SDS011;45916;52.734;6.544;2024-01-30T10:33:35;18.75;;;14.73;;
60038;SDS011;45916;52.734;6.544;2024-01-30T10:36:02;20.92;;;14.85;;
60038;SDS011;45916;52.734;6.544;2024-01-30T10:38:29;18.58;;;14.73;;
60038;SDS011;45916;52.734;6.544;2024-01-30T10:40:56;18.90;;;14.73;;
60038;SDS011;45916;52.734;6.544;2024-01-30T10:43:24;18.05;;;15.25;;
60038;SDS011;45916;52.734;6.544;2024-01-30T10:45:57;16.13;;;12.93;;
60038;SDS011;45916;52.734;6.544;2024-01-30T10:48:30;17.88;;;15.02;;
60038;SDS011;45916;52.734;6.544;2024-01-30T10:51:01;17.85;;;15.18;;
60038;SDS011;45916;52.734;6.544;2024-01-30T10:53:29;18.15;;;15.70;;
60038;SDS011;45916;52.734;6.544;2024-01-30T10:55:56;17.33;;;15.13;;
60038;SDS011;45916;52.734;6.544;2024-01-30T10:58:23;16.85;;;15.10;;
60038;SDS011;45916;52.734;6.544;2024-01-30T11:00:50;21.80;;;15.90;;
60038;SDS011;45916;52.734;6.544;2024-01-30T11:03:16;16.52;;;14.57;;
60038;SDS011;45916;52.734;6.544;2024-01-30T11:05:42;18.63;;;15.38;;
60038;SDS011;45916;52.734;6.544;2024-01-30T11:08:12;18.13;;;15.45;;
60038;SDS011;45916;52.734;6.544;2024-01-30T11:10:47;18.55;;;15.40;;
60038;SDS011;45916;52.734;6.544;2024-01-30T11:13:13;18.98;;;15.68;;
60038;SDS011;45916;52.734;6.544;2024-01-30T11:15:40;19.77;;;15.85;;
60038;SDS011;45916;52.734;6.544;2024-01-30T11:18:05;21.70;;;15.60;;
60038;SDS011;45916;52.734;6.544;2024-01-30T11:20:31;21.73;;;16.52;;
60038;SDS011;45916;52.734;6.544;2024-01-30T11:22:58;19.50;;;15.82;;
60038;SDS011;45916;52.734;6.544;2024-01-30T11:25:25;18.80;;;16.63;;
60038;SDS011;45916;52.734;6.544;2024-01-30T11:27:51;22.13;;;16.67;;
60038;SDS011;45916;52.734;6.544;2024-01-30T11:30:22;20.42;;;15.70;;
60038;SDS011;45916;52.734;6.544;2024-01-30T11:33:05;21.98;;;15.90;;
60038;SDS011;45916;52.734;6.544;2024-01-30T11:38:06;19.38;;;16.27;;
60038;SDS011;45916;52.734;6.544;2024-01-30T11:40:33;20.52;;;16.67;;
60038;SDS011;45916;52.734;6.544;2024-01-30T11:42:59;21.00;;;17.25;;
60038;SDS011;45916;52.734;6.544;2024-01-30T11:47:53;21.73;;;15.02;;
60038;SDS011;45916;52.734;6.544;2024-01-30T11:50:19;23.33;;;16.73;;
60038;SDS011;45916;52.734;6.544;2024-01-30T11:52:46;19.02;;;16.05;;
60038;SDS011;45916;52.734;6.544;2024-01-30T11:55:12;23.10;;;16.48;;
60038;SDS011;45916;52.734;6.544;2024-01-30T11:57:39;19.52;;;17.20;;
60038;SDS011;45916;52.734;6.544;2024-01-30T12:00:05;23.70;;;17.75;;
60038;SDS011;45916;52.734;6.544;2024-01-30T12:02:41;22.88;;;16.83;;
60038;SDS011;45916;52.734;6.544;2024-01-30T12:05:08;19.58;;;15.93;;
60038;SDS011;45916;52.734;6.544;2024-01-30T12:07:36;21.55;;;16.48;;
60038;SDS011;45916;52.734;6.544;2024-01-30T12:10:02;18.90;;;16.35;;
60038;SDS011;45916;52.734;6.544;2024-01-30T12:12:29;22.42;;;17.13;;
60038;SDS011;45916;52.734;6.544;2024-01-30T12:14:55;18.85;;;16.05;;
60038;SDS011;45916;52.734;6.544;2024-01-30T12:17:29;18.23;;;15.98;;
60038;SDS011;45916;52.734;6.544;2024-01-30T12:20:06;20.33;;;16.58;;
60038;SDS011;45916;52.734;6.544;2024-01-30T12:22:35;18.35;;;16.30;;
60038;SDS011;45916;52.734;6.544;2024-01-30T12:25:04;17.02;;;15.25;;
60038;SDS011;45916;52.734;6.544;2024-01-30T12:27:30;22.73;;;15.53;;
60038;SDS011;45916;52.734;6.544;2024-01-30T12:29:57;18.50;;;15.15;;
60038;SDS011;45916;52.734;6.544;2024-01-30T12:32:25;18.05;;;15.25;;
60038;SDS011;45916;52.734;6.544;2024-01-30T12:34:55;18.98;;;15.13;;
60038;SDS011;45916;52.734;6.544;2024-01-30T12:37:22;19.02;;;15.82;;
60038;SDS011;45916;52.734;6.544;2024-01-30T12:39:50;16.30;;;14.43;;
60038;SDS011;45916;52.734;6.544;2024-01-30T12:42:19;17.23;;;13.00;;
60038;SDS011;45916;52.734;6.544;2024-01-30T12:44:45;15.90;;;12.60;;
60038;SDS011;45916;52.734;6.544;2024-01-30T12:47:11;15.60;;;12.25;;
60038;SDS011;45916;52.734;6.544;2024-01-30T12:49:36;17.52;;;13.05;;
60038;SDS011;45916;52.734;6.544;2024-01-30T12:52:02;15.45;;;11.45;;
60038;SDS011;45916;52.734;6.544;2024-01-30T12:54:28;12.90;;;10.80;;
60038;SDS011;45916;52.734;6.544;2024-01-30T12:56:54;13.07;;;10.00;;
60038;SDS011;45916;52.734;6.544;2024-01-30T12:59:21;16.00;;;11.05;;
60038;SDS011;45916;52.734;6.544;2024-01-30T13:01:47;12.90;;;10.40;;
60038;SDS011;45916;52.734;6.544;2024-01-30T13:04:13;11.68;;;8.80;;
60038;SDS011;45916;52.734;6.544;2024-01-30T13:06:40;11.27;;;9.15;;
60038;SDS011;45916;52.734;6.544;2024-01-30T13:09:05;11.20;;;7.40;;
60038;SDS011;45916;52.734;6.544;2024-01-30T13:11:31;10.68;;;8.80;;
60038;SDS011;45916;52.734;6.544;2024-01-30T13:13:57;11.90;;;7.28;;
60038;SDS011;45916;52.734;6.544;2024-01-30T13:16:22;10.65;;;6.30;;
60038;SDS011;45916;52.734;6.544;2024-01-30T13:18:48;10.88;;;7.80;;
60038;SDS011;45916;52.734;6.544;2024-01-30T13:21:15;12.80;;;7.53;;
60038;SDS011;45916;52.734;6.544;2024-01-30T13:23:41;9.43;;;7.03;;
60038;SDS011;45916;52.734;6.544;2024-01-30T13:26:07;9.18;;;6.75;;
60038;SDS011;45916;52.734;6.544;2024-01-30T13:28:32;10.82;;;7.95;;
60038;SDS011;45916;52.734;6.544;2024-01-30T13:30:58;10.43;;;7.70;;
60038;SDS011;45916;52.734;6.544;2024-01-30T13:33:24;10.40;;;7.90;;
60038;SDS011;45916;52.734;6.544;2024-01-30T13:35:51;9.50;;;6.25;;
60038;SDS011;45916;52.734;6.544;2024-01-30T13:38:17;9.75;;;6.43;;
60038;SDS011;45916;52.734;6.544;2024-01-30T13:40:42;9.18;;;6.97;;
60038;SDS011;45916;52.734;6.544;2024-01-30T13:43:08;9.95;;;7.35;;
60038;SDS011;45916;52.734;6.544;2024-01-30T13:45:34;9.15;;;6.45;;
60038;SDS011;45916;52.734;6.544;2024-01-30T13:48:00;8.27;;;6.75;;
60038;SDS011;45916;52.734;6.544;2024-01-30T13:50:26;8.30;;;6.78;;
60038;SDS011;45916;52.734;6.544;2024-01-30T13:52:52;9.70;;;7.20;;
60038;SDS011;45916;52.734;6.544;2024-01-30T13:55:17;9.88;;;6.25;;
60038;SDS011;45916;52.734;6.544;2024-01-30T13:57:43;8.73;;;6.25;;
60038;SDS011;45916;52.734;6.544;2024-01-30T14:00:09;12.38;;;6.00;;
60038;SDS011;45916;52.734;6.544;2024-01-30T14:02:35;8.48;;;4.97;;
60038;SDS011;45916;52.734;6.544;2024-01-30T14:05:01;8.75;;;5.20;;
60038;SDS011;45916;52.734;6.544;2024-01-30T14:07:26;7.53;;;3.97;;
60038;SDS011;45916;52.734;6.544;2024-01-30T14:09:52;5.60;;;4.00;;
60038;SDS011;45916;52.734;6.544;2024-01-30T14:12:18;5.88;;;3.15;;
60038;SDS011;45916;52.734;6.544;2024-01-30T14:14:43;7.10;;;3.13;;
60038;SDS011;45916;52.734;6.544;2024-01-30T14:17:09;7.93;;;2.80;;
60038;SDS011;45916;52.734;6.544;2024-01-30T14:19:35;4.68;;;2.88;;
60038;SDS011;45916;52.734;6.544;2024-01-30T14:22:04;5.05;;;2.65;;
60038;SDS011;45916;52.734;6.544;2024-01-30T14:24:30;5.85;;;2.95;;